Time;durP1;ratioP1;P1;durP2;ratioP2;P2;SDS_P1;SDS_P2;PMS_P1;PMS_P2;Temp;Humidity;BMP_temperature;BMP_pressure;BME280_temperature;BME280_humidity;BME280_pressure;Samples;Min_cycle;Max_cycle;Signal;HPM_P1;HPM_P2
2021/07/08 00:00:03;;;;;;;14.82;8.38;;;17.00;99.90;;;;;;5107614;28;20388;-78
2021/07/08 00:02:30;;;;;;;19.55;7.93;;;17.00;99.90;;;;;;5113429;28;20035;-78
2021/07/08 00:04:56;;;;;;;13.82;8.23;;;17.00;99.90;;;;;;5102308;28;20027;-78
2021/07/08 00:07:21;;;;;;;16.40;8.88;;;17.00;99.90;;;;;;5099836;27;20032;-78
2021/07/08 00:09:47;;;;;;;12.15;8.20;;;17.00;99.90;;;;;;5099160;28;20061;-78
2021/07/08 00:12:13;;;;;;;15.23;8.43;;;17.00;99.90;;;;;;5115257;28;20050;-78
2021/07/08 00:14:39;;;;;;;13.50;8.63;;;17.00;99.90;;;;;;5099275;28;20118;-78
2021/07/08 00:17:06;;;;;;;12.15;8.48;;;16.90;99.90;;;;;;5114271;28;20035;-78
2021/07/08 00:19:39;;;;;;;11.68;8.60;;;16.90;99.90;;;;;;5078551;28;20039;-78
2021/07/08 00:22:06;;;;;;;11.90;8.60;;;17.20;99.90;;;;;;5099277;28;20028;-78
2021/07/08 00:24:34;;;;;;;15.43;9.30;;;16.90;99.90;;;;;;5102092;28;20062;-78
2021/07/08 00:27:00;;;;;;;13.25;8.93;;;16.90;99.90;;;;;;5062629;28;20045;-78
2021/07/08 00:29:26;;;;;;;12.63;8.40;;;16.90;99.90;;;;;;5099469;28;20043;-78
2021/07/08 00:31:52;;;;;;;15.80;8.95;;;16.90;99.90;;;;;;5085355;28;20085;-78
2021/07/08 00:34:18;;;;;;;12.82;8.40;;;16.80;99.90;;;;;;5064148;28;20384;-78
2021/07/08 00:36:46;;;;;;;15.90;9.90;;;16.80;99.90;;;;;;5109686;27;20040;-78
2021/07/08 00:39:15;;;;;;;12.30;8.25;;;16.80;99.90;;;;;;5097540;27;20076;-78
2021/07/08 00:41:42;;;;;;;13.18;8.70;;;16.80;99.90;;;;;;5098669;28;20084;-78
2021/07/08 00:44:09;;;;;;;13.00;8.35;;;16.80;99.90;;;;;;5094595;28;20497;-78
2021/07/08 00:46:34;;;;;;;14.38;8.30;;;16.80;99.90;;;;;;5090502;28;20044;-78
2021/07/08 00:49:03;;;;;;;15.15;8.55;;;16.80;99.90;;;;;;5072101;28;20054;-76
2021/07/08 00:51:29;;;;;;;13.23;8.32;;;16.70;99.90;;;;;;5083072;28;20509;-76
2021/07/08 00:53:55;;;;;;;10.68;8.52;;;16.80;99.90;;;;;;5095444;28;20039;-76
2021/07/08 00:56:21;;;;;;;16.70;9.90;;;16.80;99.90;;;;;;5112864;28;20061;-77
2021/07/08 00:59:07;;;;;;;12.85;9.02;;;16.80;99.90;;;;;;5082564;28;20066;-77
2021/07/08 01:01:34;;;;;;;14.77;10.00;;;16.80;99.90;;;;;;5100723;28;20039;-77
2021/07/08 01:04:03;;;;;;;15.93;10.65;;;16.80;99.90;;;;;;5096734;28;20027;-77
2021/07/08 01:06:31;;;;;;;17.50;10.00;;;16.70;99.90;;;;;;5099600;28;20030;-76
2021/07/08 01:08:58;;;;;;;14.07;10.20;;;16.80;99.90;;;;;;5111668;28;20031;-76
2021/07/08 01:11:25;;;;;;;15.93;10.60;;;16.80;99.90;;;;;;5064934;28;20039;-76
2021/07/08 01:13:51;;;;;;;19.42;10.88;;;16.80;99.90;;;;;;5096676;28;20035;-76
2021/07/08 01:16:24;;;;;;;14.98;11.05;;;16.80;99.90;;;;;;5106257;28;20085;-76
2021/07/08 01:18:53;;;;;;;15.55;9.98;;;16.70;99.90;;;;;;5078597;28;20100;-77
2021/07/08 01:21:35;;;;;;;13.38;10.13;;;16.70;99.90;;;;;;5099885;28;20122;-77
2021/07/08 01:24:04;;;;;;;16.27;9.93;;;16.70;99.90;;;;;;5097105;27;20042;-77
2021/07/08 01:26:56;;;;;;;13.23;9.67;;;16.70;99.90;;;;;;5095754;28;20494;-77
2021/07/08 01:29:24;;;;;;;13.88;10.50;;;16.70;99.90;;;;;;5112871;28;20466;-77
2021/07/08 01:31:50;;;;;;;13.38;10.20;;;16.70;99.90;;;;;;5112546;28;20055;-77
2021/07/08 01:34:16;;;;;;;17.77;10.75;;;16.60;99.90;;;;;;5078930;28;20122;-77
2021/07/08 01:36:42;;;;;;;14.80;11.43;;;16.70;99.90;;;;;;5112915;28;20032;-77
2021/07/08 01:39:11;;;;;;;14.68;10.80;;;16.70;99.90;;;;;;5095432;28;20134;-77
2021/07/08 01:41:40;;;;;;;15.65;10.75;;;16.60;99.90;;;;;;5053488;28;20059;-76
2021/07/08 01:44:06;;;;;;;16.00;10.63;;;16.60;99.90;;;;;;5090125;28;20067;-76
2021/07/08 01:46:38;;;;;;;18.60;12.00;;;16.60;99.90;;;;;;5112709;28;20028;-76
2021/07/08 01:49:06;;;;;;;14.07;11.25;;;16.60;99.90;;;;;;5061538;28;20063;-76
2021/07/08 01:51:35;;;;;;;23.02;11.93;;;16.60;99.90;;;;;;5103473;28;20036;-76
2021/07/08 01:54:03;;;;;;;17.10;11.40;;;16.60;99.90;;;;;;5112762;28;20059;-76
2021/07/08 01:56:29;;;;;;;15.27;11.13;;;16.50;99.90;;;;;;5111187;28;20066;-76
2021/07/08 01:58:55;;;;;;;18.17;11.38;;;16.50;99.90;;;;;;5077422;28;20055;-76
2021/07/08 02:01:24;;;;;;;13.13;10.55;;;16.50;99.90;;;;;;5112002;28;20084;-78
2021/07/08 02:03:53;;;;;;;19.20;11.30;;;16.40;99.90;;;;;;5112898;28;20046;-78
2021/07/08 02:06:22;;;;;;;17.77;11.40;;;16.50;99.90;;;;;;5112292;28;20133;-77
2021/07/08 02:08:49;;;;;;;14.75;10.55;;;16.50;99.90;;;;;;5101440;28;20056;-77
2021/07/08 02:11:15;;;;;;;14.75;11.02;;;16.50;99.90;;;;;;5077719;28;20051;-77
2021/07/08 02:13:45;;;;;;;14.40;10.10;;;16.50;99.90;;;;;;5090470;28;20451;-77
2021/07/08 02:16:18;;;;;;;15.23;10.23;;;16.60;99.90;;;;;;5112128;28;20031;-77
2021/07/08 02:18:44;;;;;;;16.75;10.48;;;16.70;99.90;;;;;;5097953;28;20123;-77
2021/07/08 02:21:12;;;;;;;18.33;11.07;;;16.40;99.90;;;;;;5080999;28;20051;-77
2021/07/08 02:23:42;;;;;;;15.15;10.88;;;16.40;99.90;;;;;;5111916;28;20118;-77
2021/07/08 02:26:11;;;;;;;14.85;11.05;;;16.40;99.90;;;;;;5110830;28;20028;-77
2021/07/08 02:28:42;;;;;;;16.08;10.73;;;16.50;99.90;;;;;;5091230;28;20028;-77
2021/07/08 02:31:17;;;;;;;14.63;9.55;;;16.40;99.90;;;;;;5077838;28;20075;-77
2021/07/08 02:33:45;;;;;;;16.55;10.73;;;16.30;99.90;;;;;;5112110;28;20042;-78
2021/07/08 02:36:11;;;;;;;12.77;9.90;;;16.30;99.90;;;;;;5085006;28;20044;-78
2021/07/08 02:38:40;;;;;;;13.10;10.13;;;16.30;99.90;;;;;;5099019;28;20179;-78
2021/07/08 02:41:06;;;;;;;17.65;10.93;;;16.30;99.90;;;;;;5111911;28;20039;-78
2021/07/08 02:43:32;;;;;;;16.98;10.50;;;16.30;99.90;;;;;;5111314;28;20040;-78
2021/07/08 02:45:58;;;;;;;20.55;10.80;;;16.30;99.90;;;;;;5111621;28;20036;-78
2021/07/08 02:48:26;;;;;;;13.48;9.73;;;16.20;99.90;;;;;;5094204;28;20475;-78
2021/07/08 02:50:53;;;;;;;13.93;10.00;;;16.20;99.90;;;;;;5111038;28;21600;-78
2021/07/08 02:53:19;;;;;;;12.85;9.43;;;16.20;99.90;;;;;;5111985;28;20035;-78
2021/07/08 02:55:46;;;;;;;14.25;9.82;;;16.20;99.90;;;;;;5111907;28;20092;-78
2021/07/08 02:58:18;;;;;;;11.73;10.10;;;16.10;99.90;;;;;;5112679;28;20035;-77
2021/07/08 03:00:46;;;;;;;12.35;9.75;;;16.10;99.90;;;;;;5060627;28;20067;-77
2021/07/08 03:03:12;;;;;;;11.15;8.95;;;16.10;99.90;;;;;;5112115;28;20039;-77
2021/07/08 03:05:38;;;;;;;13.05;9.35;;;16.10;99.90;;;;;;5097681;28;20028;-77
2021/07/08 03:08:04;;;;;;;12.52;9.13;;;16.10;99.90;;;;;;5115335;28;20403;-77
2021/07/08 03:10:30;;;;;;;11.98;8.82;;;16.10;99.90;;;;;;5115317;28;20398;-77
2021/07/08 03:12:56;;;;;;;11.10;8.60;;;16.10;99.90;;;;;;5113965;28;20099;-77
2021/07/08 03:15:23;;;;;;;14.73;8.63;;;15.90;99.90;;;;;;5114904;28;20092;-77
2021/07/08 03:17:50;;;;;;;12.35;8.55;;;16.00;99.90;;;;;;5115413;28;20032;-77
2021/07/08 03:20:21;;;;;;;10.15;8.48;;;16.00;99.90;;;;;;5098456;28;20047;-76
2021/07/08 03:22:48;;;;;;;13.35;8.70;;;16.10;99.90;;;;;;5097429;28;20500;-77
2021/07/08 03:25:17;;;;;;;13.70;8.95;;;16.00;99.90;;;;;;5115020;28;20398;-77
2021/07/08 03:27:43;;;;;;;10.68;8.52;;;16.10;99.90;;;;;;5088707;28;20541;-77
2021/07/08 03:30:12;;;;;;;10.23;8.45;;;16.00;99.90;;;;;;5100335;28;20036;-78
2021/07/08 03:32:39;;;;;;;12.52;9.20;;;16.00;99.90;;;;;;5101389;28;20039;-78
2021/07/08 03:35:07;;;;;;;11.13;8.30;;;16.00;99.90;;;;;;5114443;28;20066;-78
2021/07/08 03:37:33;;;;;;;10.77;8.05;;;16.00;99.90;;;;;;5115306;28;20038;-78
2021/07/08 03:39:59;;;;;;;10.73;8.80;;;16.00;99.90;;;;;;5084094;28;20036;-78
2021/07/08 03:42:25;;;;;;;12.85;8.80;;;16.00;99.90;;;;;;5114846;28;20040;-78
2021/07/08 03:44:53;;;;;;;11.73;8.65;;;16.00;99.90;;;;;;5102888;28;20040;-78
2021/07/08 03:47:19;;;;;;;9.88;8.63;;;16.00;99.90;;;;;;5114922;28;20031;-78
2021/07/08 03:49:44;;;;;;;10.65;8.13;;;16.00;99.90;;;;;;5080165;28;20043;-78
2021/07/08 03:52:10;;;;;;;10.35;8.20;;;16.10;99.90;;;;;;5121131;27;20399;-78
2021/07/08 03:54:36;;;;;;;12.27;8.27;;;16.00;99.90;;;;;;5114708;28;20028;-78
2021/07/08 03:57:03;;;;;;;13.40;9.02;;;16.00;99.90;;;;;;5100381;28;20039;-78
2021/07/08 03:59:29;;;;;;;12.38;8.15;;;16.00;99.90;;;;;;5114730;28;20032;-78
2021/07/08 04:01:54;;;;;;;12.57;8.70;;;16.00;99.90;;;;;;5106508;28;20047;-78
2021/07/08 04:04:21;;;;;;;9.77;8.00;;;15.90;99.90;;;;;;5114361;28;20058;-78
2021/07/08 04:06:47;;;;;;;12.95;8.52;;;16.00;99.90;;;;;;5100398;28;20058;-78
2021/07/08 04:09:13;;;;;;;14.05;8.45;;;16.00;99.90;;;;;;5114373;28;20039;-78
2021/07/08 04:11:39;;;;;;;10.93;8.38;;;16.00;99.90;;;;;;5114282;28;20050;-78
2021/07/08 04:14:05;;;;;;;13.15;8.32;;;16.00;99.90;;;;;;5060637;28;20040;-78
2021/07/08 04:16:31;;;;;;;10.82;8.57;;;16.10;99.90;;;;;;5112326;28;20039;-78
2021/07/08 04:19:03;;;;;;;9.82;8.60;;;16.10;99.90;;;;;;5096858;28;20032;-78
2021/07/08 04:21:29;;;;;;;15.45;8.65;;;16.10;99.90;;;;;;5100766;28;20085;-78
2021/07/08 04:23:55;;;;;;;11.68;8.38;;;16.20;99.90;;;;;;5096006;28;20047;-78
2021/07/08 04:26:22;;;;;;;12.25;8.30;;;16.20;99.90;;;;;;5113602;28;20407;-78
2021/07/08 04:28:48;;;;;;;12.18;8.20;;;16.20;99.90;;;;;;5079499;28;20530;-79
2021/07/08 04:31:16;;;;;;;10.65;8.55;;;16.30;99.90;;;;;;5104971;28;20139;-79
2021/07/08 04:33:46;;;;;;;10.23;7.72;;;16.30;99.90;;;;;;5113892;28;20097;-79
2021/07/08 04:36:12;;;;;;;12.77;8.60;;;16.40;99.90;;;;;;5114167;28;20032;-79
2021/07/08 04:38:46;;;;;;;9.15;7.93;;;16.40;99.90;;;;;;5113670;28;20038;-79
2021/07/08 04:41:34;;;;;;;13.82;8.70;;;16.50;99.90;;;;;;5088723;28;20051;-79
2021/07/08 04:44:00;;;;;;;16.33;9.60;;;16.50;99.90;;;;;;5095613;28;20043;-79
2021/07/08 04:46:27;;;;;;;14.73;9.85;;;16.60;99.90;;;;;;5106369;28;20047;-79
2021/07/08 04:48:57;;;;;;;16.77;9.65;;;16.70;99.90;;;;;;5080937;28;20043;-79
2021/07/08 04:51:24;;;;;;;18.15;9.88;;;16.80;99.90;;;;;;5062451;28;20449;-79
2021/07/08 04:53:51;;;;;;;17.70;9.82;;;16.90;99.90;;;;;;5109957;28;20036;-79
2021/07/08 04:56:17;;;;;;;13.00;10.23;;;17.00;99.90;;;;;;5102292;28;20039;-78
2021/07/08 04:58:43;;;;;;;19.95;10.52;;;17.10;99.90;;;;;;5113624;28;20437;-78
2021/07/08 05:01:09;;;;;;;27.10;10.43;;;17.20;99.90;;;;;;5081659;28;20119;-78
2021/07/08 05:03:35;;;;;;;17.70;10.27;;;17.20;99.90;;;;;;5098059;28;20495;-78
2021/07/08 05:06:01;;;;;;;18.35;10.73;;;17.30;99.90;;;;;;5113002;28;20031;-77
2021/07/08 05:08:27;;;;;;;18.92;11.20;;;17.40;99.90;;;;;;5100002;28;20028;-77
2021/07/08 05:10:53;;;;;;;22.67;10.60;;;17.50;99.90;;;;;;5112743;28;20058;-77
2021/07/08 05:13:19;;;;;;;19.75;10.75;;;17.50;99.90;;;;;;5112907;28;20248;-77
2021/07/08 05:15:47;;;;;;;18.15;10.23;;;17.60;99.90;;;;;;5113004;28;20114;-78
2021/07/08 05:18:13;;;;;;;17.30;10.52;;;17.70;99.90;;;;;;5081579;28;20126;-78
2021/07/08 05:20:40;;;;;;;19.05;10.65;;;17.80;99.90;;;;;;5105580;28;20502;-79
2021/07/08 05:23:16;;;;;;;16.95;11.15;;;17.90;99.90;;;;;;5095005;28;20475;-79
2021/07/08 05:25:43;;;;;;;19.98;11.73;;;17.90;99.90;;;;;;5106017;28;20108;-79
2021/07/08 05:28:13;;;;;;;23.05;13.25;;;17.90;99.90;;;;;;5112114;28;20070;-79
2021/07/08 05:30:39;;;;;;;23.25;13.32;;;18.00;99.90;;;;;;5079404;28;20097;-80
2021/07/08 05:33:06;;;;;;;23.08;13.60;;;18.10;99.90;;;;;;5095018;28;20039;-78
2021/07/08 05:35:32;;;;;;;20.70;13.30;;;18.20;99.90;;;;;;5094971;28;20055;-79
2021/07/08 05:37:58;;;;;;;24.55;14.32;;;18.20;99.90;;;;;;5113185;28;20063;-79
2021/07/08 05:40:24;;;;;;;21.75;14.10;;;18.30;99.90;;;;;;5084542;28;20039;-78
2021/07/08 05:42:52;;;;;;;18.83;13.07;;;18.40;99.90;;;;;;5084068;28;20075;-78
2021/07/08 05:45:20;;;;;;;18.70;13.98;;;18.40;99.90;;;;;;5112987;28;20118;-79
2021/07/08 05:47:49;;;;;;;20.20;14.65;;;18.50;99.90;;;;;;5094704;28;20107;-80
2021/07/08 05:50:18;;;;;;;18.95;14.18;;;18.60;99.90;;;;;;5094972;28;20059;-79
2021/07/08 05:52:49;;;;;;;18.92;11.98;;;18.70;99.90;;;;;;5083740;28;20036;-80
2021/07/08 05:55:18;;;;;;;18.30;12.00;;;18.80;99.90;;;;;;5108352;28;20030;-79
2021/07/08 05:57:47;;;;;;;16.80;10.30;;;18.80;99.90;;;;;;5117604;28;20035;-78
2021/07/08 06:00:15;;;;;;;17.00;9.85;;;18.80;99.90;;;;;;5113027;28;20027;-79
2021/07/08 06:02:43;;;;;;;15.25;10.48;;;18.90;99.90;;;;;;5089036;28;20465;-79
2021/07/08 06:05:10;;;;;;;18.20;10.00;;;19.00;99.90;;;;;;5083519;28;20402;-80
2021/07/08 06:07:37;;;;;;;16.92;9.70;;;19.00;99.90;;;;;;5090477;28;20123;-79
2021/07/08 06:10:18;;;;;;;15.80;9.45;;;19.10;99.90;;;;;;5080992;28;20059;-80
2021/07/08 06:12:51;;;;;;;14.93;9.40;;;19.20;99.90;;;;;;5103913;28;20043;-78
2021/07/08 06:15:17;;;;;;;17.70;9.45;;;19.20;99.90;;;;;;5067862;28;20032;-79
2021/07/08 06:17:46;;;;;;;14.38;9.40;;;19.30;99.90;;;;;;5112607;28;20644;-79
2021/07/08 06:20:13;;;;;;;13.68;9.00;;;19.30;99.90;;;;;;5104673;28;20092;-83
2021/07/08 06:22:39;;;;;;;13.20;8.98;;;19.40;99.90;;;;;;5076901;28;20039;-79
2021/07/08 06:25:06;;;;;;;13.57;8.55;;;19.40;99.90;;;;;;5110162;28;20036;-78
2021/07/08 06:27:32;;;;;;;13.23;8.73;;;19.40;99.90;;;;;;5112673;28;20058;-78
2021/07/08 06:30:04;;;;;;;13.93;9.23;;;19.50;99.90;;;;;;5104980;28;20044;-81
2021/07/08 06:32:30;;;;;;;14.10;8.63;;;19.70;99.90;;;;;;5083614;28;20032;-78
2021/07/08 06:35:03;;;;;;;13.63;8.55;;;19.60;99.90;;;;;;5106345;28;20050;-78
2021/07/08 06:37:29;;;;;;;13.05;8.98;;;19.60;99.90;;;;;;5075460;28;20032;-78
2021/07/08 06:39:58;;;;;;;16.90;8.65;;;19.70;99.90;;;;;;5110010;28;20040;-78
2021/07/08 06:42:24;;;;;;;17.60;8.95;;;19.70;99.90;;;;;;5098170;28;20168;-78
2021/07/08 06:44:49;;;;;;;13.73;8.02;;;19.70;99.90;;;;;;5081277;28;20082;-78
2021/07/08 06:47:18;;;;;;;11.48;8.07;;;19.70;99.90;;;;;;5116080;28;20114;-79
2021/07/08 06:49:44;;;;;;;13.18;7.75;;;19.70;99.90;;;;;;5066221;28;20595;-78
2021/07/08 06:52:11;;;;;;;13.25;9.52;;;19.60;99.90;;;;;;5080661;28;20040;-78
2021/07/08 06:54:40;;;;;;;15.45;9.80;;;19.70;99.90;;;;;;5098063;28;20035;-78
2021/07/08 06:57:06;;;;;;;17.33;10.23;;;19.70;99.90;;;;;;5081202;28;20032;-78
2021/07/08 06:59:32;;;;;;;16.85;9.38;;;19.70;99.90;;;;;;5115977;28;20427;-81
2021/07/08 07:01:57;;;;;;;18.77;9.88;;;19.70;99.90;;;;;;5116353;28;20040;-78
2021/07/08 07:04:23;;;;;;;18.17;10.05;;;19.70;99.90;;;;;;5090603;28;20115;-78
2021/07/08 07:06:49;;;;;;;14.13;9.38;;;19.70;99.90;;;;;;5052531;28;20381;-81
2021/07/08 07:09:21;;;;;;;15.68;10.07;;;19.70;99.90;;;;;;5112406;28;20110;-78
2021/07/08 07:11:49;;;;;;;15.23;9.45;;;19.70;99.90;;;;;;5080843;28;20143;-78
2021/07/08 07:14:15;;;;;;;13.50;9.48;;;19.70;99.90;;;;;;5081092;28;20047;-78
2021/07/08 07:16:41;;;;;;;13.68;9.75;;;19.70;99.90;;;;;;5077479;28;20112;-81
2021/07/08 07:19:07;;;;;;;15.82;10.23;;;19.70;99.90;;;;;;5060914;28;20048;-78
2021/07/08 07:21:32;;;;;;;13.77;9.73;;;19.80;99.90;;;;;;5112292;28;20115;-78
2021/07/08 07:24:02;;;;;;;12.98;9.90;;;19.80;99.90;;;;;;5115437;28;20035;-77
2021/07/08 07:26:28;;;;;;;15.32;9.63;;;19.80;99.90;;;;;;5115347;28;20031;-81
2021/07/08 07:28:54;;;;;;;18.98;9.15;;;19.80;99.90;;;;;;5097291;28;20043;-81
2021/07/08 07:31:20;;;;;;;16.08;8.90;;;19.80;99.90;;;;;;5115435;28;20051;-78
2021/07/08 07:33:46;;;;;;;17.08;8.60;;;19.80;99.90;;;;;;5115269;28;20036;-78
2021/07/08 07:36:13;;;;;;;15.75;8.60;;;19.80;99.90;;;;;;5115351;28;20035;-78
2021/07/08 07:38:39;;;;;;;15.45;8.70;;;19.80;99.90;;;;;;5115059;28;20039;-78
2021/07/08 07:41:06;;;;;;;15.15;8.10;;;19.80;99.90;;;;;;5081631;28;20544;-78
2021/07/08 07:43:33;;;;;;;14.00;8.43;;;19.80;99.90;;;;;;5080189;28;20491;-81
2021/07/08 07:45:59;;;;;;;14.85;8.45;;;19.80;99.90;;;;;;5084709;28;20046;-82
2021/07/08 07:48:24;;;;;;;14.02;7.70;;;19.80;99.90;;;;;;5116309;28;20118;-78
2021/07/08 07:50:50;;;;;;;12.20;7.85;;;19.80;99.90;;;;;;5114638;28;20044;-78
2021/07/08 07:53:18;;;;;;;13.82;8.20;;;19.80;99.90;;;;;;5087010;28;20040;-78
2021/07/08 07:55:44;;;;;;;14.45;7.57;;;19.80;99.90;;;;;;5098901;28;20035;-82
2021/07/08 07:58:10;;;;;;;17.60;8.50;;;19.90;99.90;;;;;;5097474;28;20043;-81
2021/07/08 08:00:37;;;;;;;13.93;8.50;;;19.90;99.90;;;;;;5114662;28;20043;-78
2021/07/08 08:03:04;;;;;;;12.93;7.80;;;19.90;99.90;;;;;;5114980;28;20036;-78
2021/07/08 08:05:36;;;;;;;12.30;7.72;;;20.00;99.90;;;;;;5099022;28;20498;-78
2021/07/08 08:10:48;;;;;;;;;;;20.10;99.90;;;;;;5100872;28;20043;-78
2021/07/08 08:13:17;;;;;;;17.90;8.32;;;20.10;99.90;;;;;;5114545;28;20233;-77
2021/07/08 08:15:47;;;;;;;12.75;7.72;;;20.10;99.90;;;;;;5097512;28;20126;-77
2021/07/08 08:18:13;;;;;;;11.75;6.70;;;20.20;99.90;;;;;;5098948;28;20028;-77
2021/07/08 08:20:39;;;;;;;13.55;7.43;;;20.20;99.90;;;;;;5114142;28;20553;-77
2021/07/08 08:23:05;;;;;;;8.70;6.93;;;20.20;99.90;;;;;;5114469;28;20510;-77
2021/07/08 08:25:31;;;;;;;13.30;6.55;;;20.30;99.90;;;;;;5113759;28;20051;-78
2021/07/08 08:27:59;;;;;;;14.43;7.03;;;20.40;99.90;;;;;;5096286;28;20548;-77
2021/07/08 08:30:25;;;;;;;15.10;7.78;;;20.50;99.90;;;;;;5114176;28;20043;-77
2021/07/08 08:32:51;;;;;;;14.80;7.30;;;20.50;99.90;;;;;;5080137;28;20044;-77
2021/07/08 08:35:20;;;;;;;15.05;8.15;;;20.50;99.90;;;;;;5096944;28;20034;-80
2021/07/08 08:37:48;;;;;;;13.52;8.07;;;20.50;99.90;;;;;;5114100;28;20046;-80
2021/07/08 08:40:15;;;;;;;17.25;8.10;;;20.50;99.90;;;;;;5096388;28;20058;-81
2021/07/08 08:42:45;;;;;;;13.10;7.15;;;20.50;99.90;;;;;;5102955;28;20589;-77
2021/07/08 08:45:12;;;;;;;10.65;6.90;;;20.50;99.90;;;;;;5083235;28;20036;-77
2021/07/08 08:47:57;;;;;;;9.85;6.63;;;20.50;99.90;;;;;;5113044;28;20104;-78
2021/07/08 08:50:35;;;;;;;13.20;6.72;;;20.70;99.90;;;;;;5082601;28;20107;-78
2021/07/08 08:53:02;;;;;;;10.23;5.88;;;20.70;99.90;;;;;;5096109;28;20039;-78
2021/07/08 08:55:28;;;;;;;12.95;6.30;;;20.70;99.90;;;;;;5113909;28;20137;-77
2021/07/08 08:57:54;;;;;;;13.35;6.93;;;20.70;99.90;;;;;;5113965;28;20040;-81
2021/07/08 09:00:26;;;;;;;12.98;6.80;;;20.80;99.90;;;;;;5076583;28;20048;-78
2021/07/08 09:03:12;;;;;;;13.65;8.02;;;20.90;99.90;;;;;;5112900;28;20047;-78
2021/07/08 09:05:40;;;;;;;13.40;7.07;;;21.00;99.90;;;;;;5079940;28;20240;-78
2021/07/08 09:08:23;;;;;;;11.85;7.07;;;21.10;99.90;;;;;;5106283;28;20589;-80
2021/07/08 09:11:13;;;;;;;12.88;6.97;;;21.10;99.90;;;;;;5091237;28;20051;-77
2021/07/08 09:13:46;;;;;;;10.75;5.70;;;21.10;99.90;;;;;;5106849;28;20044;-78
2021/07/08 09:16:24;;;;;;;12.38;5.07;;;21.10;99.90;;;;;;5102024;28;20054;-81
2021/07/08 09:19:19;;;;;;;14.45;5.82;;;21.20;99.90;;;;;;5113418;28;20035;-76
2021/07/08 09:21:53;;;;;;;11.40;5.85;;;21.30;99.90;;;;;;5088693;28;20051;-76
2021/07/08 09:24:32;;;;;;;12.27;5.90;;;21.30;99.90;;;;;;5102099;28;20040;-79
2021/07/08 09:27:09;;;;;;;12.25;5.95;;;21.20;99.90;;;;;;5112943;28;20526;-81
2021/07/08 09:29:39;;;;;;;10.13;5.90;;;21.20;99.90;;;;;;5085020;28;20046;-81
2021/07/08 09:32:16;;;;;;;11.82;6.07;;;21.20;99.90;;;;;;5112709;28;20046;-79
2021/07/08 09:34:53;;;;;;;10.10;5.30;;;21.20;99.90;;;;;;5097302;28;20047;-81
2021/07/08 09:37:27;;;;;;;10.23;5.65;;;21.30;99.90;;;;;;5065235;28;20035;-79
2021/07/08 09:39:57;;;;;;;10.68;4.72;;;21.20;99.90;;;;;;5094977;28;20051;-77
2021/07/08 09:42:41;;;;;;;9.50;5.63;;;21.20;99.90;;;;;;5078618;28;20035;-78
2021/07/08 09:45:18;;;;;;;10.30;5.10;;;21.20;99.90;;;;;;5098256;28;20066;-80
2021/07/08 09:47:46;;;;;;;8.35;4.82;;;21.20;99.90;;;;;;5113162;28;20165;-82
2021/07/08 09:50:38;;;;;;;16.17;4.60;;;21.20;99.90;;;;;;5079243;28;20116;-81
2021/07/08 09:53:08;;;;;;;9.52;4.38;;;21.20;99.90;;;;;;5113153;28;20039;-81
2021/07/08 09:56:05;;;;;;;8.40;4.07;;;21.20;99.90;;;;;;5079761;28;20043;-78
2021/07/08 09:58:50;;;;;;;7.32;4.38;;;21.30;99.90;;;;;;5112982;28;20604;-77
2021/07/08 10:01:16;;;;;;;10.40;4.55;;;21.50;99.90;;;;;;5089557;28;20040;-77
2021/07/08 10:03:45;;;;;;;8.52;4.47;;;21.60;99.90;;;;;;5112845;28;20456;-78
2021/07/08 10:06:12;;;;;;;8.18;4.63;;;21.60;99.90;;;;;;5104535;28;20036;-78
2021/07/08 10:08:39;;;;;;;8.15;4.57;;;21.60;99.90;;;;;;5111621;28;20028;-78
2021/07/08 10:11:08;;;;;;;11.13;4.70;;;21.60;99.90;;;;;;5112388;28;20255;-79
2021/07/08 10:13:37;;;;;;;10.88;4.72;;;21.70;99.90;;;;;;5114893;28;20054;-78
2021/07/08 10:16:04;;;;;;;6.15;4.25;;;21.70;99.90;;;;;;5116662;28;20047;-78
2021/07/08 10:18:32;;;;;;;7.40;4.00;;;21.80;99.90;;;;;;5116535;28;20038;-77
2021/07/08 10:20:59;;;;;;;9.82;4.13;;;21.80;99.90;;;;;;5116394;28;20071;-78
2021/07/08 10:23:26;;;;;;;8.55;4.63;;;21.90;99.90;;;;;;5114646;28;20389;-78
2021/07/08 10:25:52;;;;;;;11.80;5.30;;;21.90;99.90;;;;;;5100138;28;20042;-78
2021/07/08 10:28:20;;;;;;;9.07;4.30;;;22.00;99.90;;;;;;5084449;28;20039;-78
2021/07/08 10:30:51;;;;;;;8.50;4.97;;;22.00;99.90;;;;;;5098544;28;20686;-78
2021/07/08 10:33:20;;;;;;;10.93;4.70;;;21.90;99.90;;;;;;5080711;28;20101;-81
2021/07/08 10:35:51;;;;;;;9.02;4.80;;;21.80;99.90;;;;;;5098794;28;20036;-78
2021/07/08 10:38:39;;;;;;;8.10;4.32;;;21.70;99.90;;;;;;5116457;28;20393;-81
2021/07/08 10:41:10;;;;;;;9.85;5.25;;;21.80;99.90;;;;;;5101920;28;20028;-82
2021/07/08 10:43:37;;;;;;;14.15;4.75;;;21.90;99.90;;;;;;5115875;28;20452;-81
2021/07/08 10:46:09;;;;;;;11.73;5.82;;;22.00;99.90;;;;;;5116034;28;20047;-78
2021/07/08 10:48:42;;;;;;;12.05;5.38;;;21.90;99.90;;;;;;5085864;28;20051;-78
2021/07/08 10:51:26;;;;;;;11.98;5.30;;;21.90;99.90;;;;;;5098439;28;20046;-78
2021/07/08 10:53:51;;;;;;;11.52;5.20;;;21.70;99.90;;;;;;5116037;28;20475;-78
2021/07/08 10:56:34;;;;;;;10.10;4.53;;;21.90;99.90;;;;;;5081133;28;20047;-81
2021/07/08 10:59:12;;;;;;;9.40;4.60;;;22.00;99.90;;;;;;5097659;28;20455;-81
2021/07/08 11:01:42;;;;;;;8.25;4.45;;;22.00;99.90;;;;;;5098964;28;20043;-80
2021/07/08 11:04:09;;;;;;;9.07;4.95;;;21.90;99.90;;;;;;5115940;28;20036;-81
2021/07/08 11:06:37;;;;;;;10.50;4.38;;;21.90;99.90;;;;;;5105449;28;20083;-81
2021/07/08 11:09:17;;;;;;;7.20;4.50;;;21.90;99.90;;;;;;5097733;28;20414;-77
2021/07/08 11:11:46;;;;;;;10.55;4.47;;;21.90;99.90;;;;;;5097544;28;20040;-77
2021/07/08 11:14:15;;;;;;;10.00;4.80;;;21.70;99.90;;;;;;5097716;28;20040;-77
2021/07/08 11:16:58;;;;;;;10.35;5.05;;;21.80;99.90;;;;;;5115998;28;20027;-81
2021/07/08 11:19:24;;;;;;;13.45;5.22;;;21.80;99.90;;;;;;5115791;28;20042;-81
2021/07/08 11:21:55;;;;;;;14.88;4.70;;;21.80;99.90;;;;;;5105663;28;20032;-81
2021/07/08 11:24:47;;;;;;;13.25;4.50;;;21.90;99.90;;;;;;5106674;28;20399;-81
2021/07/08 11:27:31;;;;;;;7.70;4.60;;;21.90;99.90;;;;;;5085013;28;20040;-78
2021/07/08 11:30:24;;;;;;;8.70;4.07;;;22.00;99.90;;;;;;5115302;28;20480;-78
2021/07/08 11:32:58;;;;;;;8.30;4.00;;;22.10;99.90;;;;;;5103842;28;20055;-77
2021/07/08 11:38:12;;;;;;;9.85;4.03;;;22.30;99.90;;;;;;5115278;28;20048;-77
2021/07/08 11:40:47;;;;;;;9.43;4.10;;;22.40;99.90;;;;;;5115265;28;20454;-81
2021/07/08 11:43:33;;;;;;;10.60;4.15;;;22.40;99.90;;;;;;5114904;28;20032;-78
2021/07/08 11:46:10;;;;;;;;;;;22.30;99.90;;;;;;5085063;28;20052;-77
2021/07/08 11:48:40;;;;;;;10.10;3.85;;;22.30;99.90;;;;;;5115095;28;19915;-81
2021/07/08 11:51:29;;;;;;;9.73;3.80;;;22.30;99.90;;;;;;5115759;28;20035;-81
2021/07/08 11:53:56;;;;;;;10.05;4.28;;;22.30;99.90;;;;;;5098331;28;20395;-81
2021/07/08 11:56:25;;;;;;;9.95;3.85;;;22.40;99.90;;;;;;5098444;28;20074;-81
2021/07/08 11:58:52;;;;;;;11.63;4.43;;;22.50;99.90;;;;;;5115673;28;20521;-77
2021/07/08 12:01:19;;;;;;;9.95;4.20;;;22.50;99.90;;;;;;5108763;28;20114;-80
2021/07/08 12:03:48;;;;;;;13.13;3.97;;;22.50;99.90;;;;;;5100003;28;20043;-78
2021/07/08 12:06:26;;;;;;;8.18;4.03;;;22.60;99.90;;;;;;5110108;28;20036;-77
2021/07/08 12:08:59;;;;;;;8.82;4.43;;;22.50;99.90;;;;;;5115497;28;20043;-78
2021/07/08 12:11:37;;;;;;;13.23;4.38;;;22.50;99.90;;;;;;5110522;28;20043;-81
2021/07/08 12:14:08;;;;;;;9.13;4.10;;;22.40;99.90;;;;;;5096679;28;20043;-81
2021/07/08 12:16:37;;;;;;;8.95;4.25;;;22.40;99.90;;;;;;5110165;28;20046;-81
2021/07/08 12:19:27;;;;;;;9.50;4.10;;;22.40;99.90;;;;;;5096790;28;20067;-78
2021/07/08 12:21:59;;;;;;;6.75;4.28;;;22.40;99.90;;;;;;5097645;28;20039;-81
2021/07/08 12:24:28;;;;;;;7.60;3.92;;;22.40;99.90;;;;;;5115868;28;20035;-81
2021/07/08 12:26:56;;;;;;;10.20;4.28;;;22.60;99.90;;;;;;5098337;28;20384;-81
2021/07/08 12:29:34;;;;;;;7.55;3.65;;;22.70;99.90;;;;;;5115140;28;20096;-78
2021/07/08 12:32:07;;;;;;;9.77;3.88;;;22.90;99.90;;;;;;5114638;28;20045;-78
2021/07/08 12:35:17;;;;;;;9.82;3.97;;;23.10;99.90;;;;;;5115095;28;20039;-78
2021/07/08 12:37:39;;;;;;;7.57;3.53;;;23.10;99.90;;;;;;5101160;28;20048;-78
2021/07/08 12:40:14;;;;;;;9.73;3.20;;;23.20;99.90;;;;;;5114275;28;20040;-78
2021/07/08 12:42:46;;;;;;;8.88;3.50;;;23.10;99.90;;;;;;5097244;28;20395;-78
2021/07/08 12:45:21;;;;;;;9.20;4.25;;;23.10;99.90;;;;;;5092675;28;20055;-78
2021/07/08 12:48:03;;;;;;;8.07;3.40;;;23.00;99.90;;;;;;5093043;28;20055;-78
2021/07/08 12:50:42;;;;;;;7.78;3.65;;;22.90;99.90;;;;;;5095945;28;20070;-81
2021/07/08 12:53:12;;;;;;;6.40;3.70;;;22.80;99.90;;;;;;5092517;28;20055;-81